createdAt,value
2023-06-11T00:02:30.972Z,0
2023-06-11T00:17:54.255Z,0
2023-06-11T00:33:17.568Z,0
2023-06-11T01:04:04.150Z,0
2023-06-11T01:19:27.442Z,0
2023-06-11T01:34:50.735Z,0
2023-06-11T01:50:13.056Z,0
2023-06-11T02:05:36.359Z,0
2023-06-11T02:20:59.603Z,0
2023-06-11T02:36:22.864Z,0
2023-06-11T02:51:46.103Z,0
2023-06-11T03:07:09.354Z,0
2023-06-11T03:22:32.614Z,5
2023-06-11T03:37:55.876Z,11
2023-06-11T03:53:19.129Z,16
2023-06-11T04:08:42.365Z,22
2023-06-11T04:24:05.632Z,22
2023-06-11T04:39:28.869Z,28
2023-06-11T04:54:52.140Z,33
2023-06-11T05:10:14.399Z,33
2023-06-11T05:25:37.639Z,39
2023-06-11T05:41:00.910Z,39
2023-06-11T05:56:24.149Z,45
2023-06-11T06:11:47.421Z,45
2023-06-11T06:27:10.675Z,50
2023-06-11T06:42:33.926Z,50
2023-06-11T06:57:57.178Z,56
2023-06-11T07:13:20.429Z,61
2023-06-11T07:28:43.681Z,67
2023-06-11T07:44:06.933Z,73
2023-06-11T07:59:30.176Z,67
2023-06-11T08:14:53.432Z,73
2023-06-11T08:30:15.700Z,73
2023-06-11T08:45:38.954Z,73
2023-06-11T09:01:02.207Z,78
2023-06-11T09:02:25.612Z,78
2023-06-11T09:03:49.033Z,78
2023-06-11T09:05:12.448Z,78
2023-06-11T09:06:35.855Z,78
2023-06-11T09:07:59.266Z,78
2023-06-11T09:09:22.665Z,78
2023-06-11T09:10:46.081Z,78
2023-06-11T09:12:09.472Z,78
2023-06-11T09:13:32.888Z,78
2023-06-11T09:14:56.289Z,78
2023-06-11T09:16:18.714Z,78
2023-06-11T09:17:42.136Z,78
2023-06-11T09:19:05.543Z,78
2023-06-11T09:20:28.944Z,78
2023-06-11T09:21:52.359Z,84
2023-06-11T09:23:15.754Z,84
2023-06-11T09:24:39.163Z,84
2023-06-11T09:26:02.580Z,84
2023-06-11T09:27:25.981Z,84
2023-06-11T09:28:49.395Z,84
2023-06-11T09:30:12.788Z,84
2023-06-11T09:31:36.204Z,84
2023-06-11T09:32:59.604Z,84
2023-06-11T09:34:22.030Z,84
2023-06-11T09:35:45.445Z,84
2023-06-11T09:37:08.838Z,84
2023-06-11T09:38:32.270Z,84
2023-06-11T09:39:55.670Z,84
2023-06-11T09:41:19.079Z,84
2023-06-11T09:42:42.480Z,84
2023-06-11T09:44:05.889Z,84
2023-06-11T09:45:29.312Z,84
2023-06-11T09:46:52.720Z,84
2023-06-11T09:48:16.135Z,90
2023-06-11T09:49:39.532Z,90
2023-06-11T09:51:02.949Z,90
2023-06-11T09:52:25.372Z,90
2023-06-11T09:53:48.780Z,90
2023-06-11T09:55:12.191Z,90
2023-06-11T09:56:35.591Z,90
2023-06-11T09:57:59.003Z,90
2023-06-11T09:59:21.427Z,90
2023-06-11T10:00:44.841Z,90
2023-06-11T10:02:08.256Z,90
2023-06-11T10:03:31.671Z,90
2023-06-11T10:04:55.073Z,90
2023-06-11T10:06:18.478Z,90
2023-06-11T10:07:41.902Z,90
2023-06-11T10:09:05.309Z,95
2023-06-11T10:10:28.705Z,95
2023-06-11T10:11:52.110Z,95
2023-06-11T10:13:15.522Z,95
2023-06-11T10:14:38.924Z,95
2023-06-11T10:16:02.341Z,112
2023-06-11T10:17:24.765Z,112
2023-06-11T10:18:48.167Z,106
2023-06-11T10:20:11.583Z,106
2023-06-11T10:21:34.999Z,112
2023-06-11T10:22:58.396Z,112
2023-06-11T10:24:21.808Z,112
2023-06-11T10:25:45.216Z,112
2023-06-11T10:27:08.630Z,118
2023-06-11T10:28:32.022Z,118
2023-06-11T10:29:55.433Z,123
2023-06-11T10:31:18.840Z,123
2023-06-11T10:32:42.246Z,123
2023-06-11T10:34:05.652Z,129
2023-06-11T10:35:28.080Z,129
2023-06-11T10:36:51.486Z,140
2023-06-11T10:38:14.901Z,146
2023-06-11T10:39:38.308Z,146
2023-06-11T10:41:01.726Z,146
2023-06-11T10:42:25.112Z,151
2023-06-11T10:43:48.543Z,95
2023-06-11T10:45:11.953Z,112
2023-06-11T10:46:35.350Z,101
2023-06-11T10:47:58.773Z,146
2023-06-11T10:49:22.187Z,168
2023-06-11T10:50:45.588Z,112
2023-06-11T10:52:08.992Z,180
2023-06-11T10:53:31.423Z,185
2023-06-11T10:54:54.833Z,118
2023-06-11T10:56:18.247Z,101
2023-06-11T10:57:41.649Z,185
2023-06-11T10:59:05.052Z,191
2023-06-11T11:00:28.453Z,191
2023-06-11T11:01:51.871Z,106
2023-06-11T11:03:15.274Z,112
2023-06-11T11:04:38.690Z,174
2023-06-11T11:06:02.096Z,191
2023-06-11T11:07:25.513Z,208
2023-06-11T11:08:48.912Z,219
2023-06-11T11:10:12.317Z,208
2023-06-11T11:11:34.746Z,208
2023-06-11T11:12:58.166Z,208
2023-06-11T11:14:21.563Z,219
2023-06-11T11:15:44.972Z,230
2023-06-11T11:17:08.389Z,236
2023-06-11T11:18:31.800Z,253
2023-06-11T11:19:55.199Z,281
2023-06-11T11:21:18.616Z,275
2023-06-11T11:22:42.018Z,253
2023-06-11T11:24:05.434Z,264
2023-06-11T11:25:28.826Z,292
2023-06-11T11:26:52.240Z,286
2023-06-11T11:28:15.653Z,101
2023-06-11T11:29:38.082Z,118
2023-06-11T11:31:01.503Z,315
2023-06-11T11:32:24.897Z,371
2023-06-11T11:33:48.310Z,343
2023-06-11T11:35:11.729Z,376
2023-06-11T11:36:35.133Z,416
2023-06-11T11:37:58.550Z,495
2023-06-11T11:39:21.966Z,483
2023-06-11T11:40:45.364Z,343
2023-06-11T11:42:08.776Z,472
2023-06-11T11:43:32.191Z,483
2023-06-11T11:44:55.587Z,219
2023-06-11T11:46:19.003Z,123
2023-06-11T11:47:41.434Z,123
2023-06-11T11:49:04.838Z,123
2023-06-11T11:50:28.260Z,118
2023-06-11T11:51:51.660Z,123
2023-06-11T11:53:15.063Z,495
2023-06-11T11:54:38.489Z,624
2023-06-11T11:56:01.899Z,618
2023-06-11T11:57:25.306Z,624
2023-06-11T11:58:48.725Z,523
2023-06-11T12:00:12.122Z,489
2023-06-11T12:01:35.536Z,365
2023-06-11T12:02:58.954Z,326
2023-06-11T12:04:22.341Z,433
2023-06-11T12:05:44.770Z,157
2023-06-11T12:07:08.182Z,151
2023-06-11T12:08:31.593Z,658
2023-06-11T12:09:55.007Z,765
2023-06-11T12:11:18.421Z,838
2023-06-11T12:12:41.827Z,315
2023-06-11T12:14:05.214Z,517
2023-06-11T12:15:28.627Z,140
2023-06-11T12:16:52.043Z,376
2023-06-11T12:18:15.448Z,455
2023-06-11T12:19:38.852Z,489
2023-06-11T12:21:02.262Z,573
2023-06-11T12:22:25.685Z,708
2023-06-11T12:23:48.102Z,838
2023-06-11T12:25:11.513Z,911
2023-06-11T12:26:34.913Z,731
2023-06-11T12:27:58.321Z,405
2023-06-11T12:29:21.745Z,438
2023-06-11T12:30:45.158Z,697
2023-06-11T12:32:08.552Z,663
2023-06-11T12:33:31.000Z,511
2023-06-11T12:34:55.379Z,421
2023-06-11T12:36:18.778Z,450
2023-06-11T12:37:42.197Z,534
2023-06-11T12:39:05.592Z,511
2023-06-11T12:40:29.017Z,348
2023-06-11T12:41:51.425Z,489
2023-06-11T12:43:14.840Z,787
2023-06-11T12:44:38.257Z,781
2023-06-11T12:46:01.663Z,888
2023-06-11T12:47:25.078Z,866
2023-06-11T12:48:48.494Z,742
2023-06-11T12:50:11.895Z,596
2023-06-11T12:51:35.301Z,461
2023-06-11T12:52:58.717Z,365
2023-06-11T12:54:22.122Z,343
2023-06-11T12:55:45.522Z,500
2023-06-11T12:57:08.949Z,669
2023-06-11T12:58:32.354Z,753
2023-06-11T12:59:54.764Z,781
2023-06-11T13:01:18.191Z,798
2023-06-11T13:02:41.604Z,849
2023-06-11T13:04:04.994Z,883
2023-06-11T13:05:28.407Z,585
2023-06-11T13:06:51.821Z,382
2023-06-11T13:08:15.238Z,556
2023-06-11T13:09:38.647Z,573
2023-06-11T13:11:02.053Z,517
2023-06-11T13:12:25.470Z,455
2023-06-11T13:13:48.871Z,281
2023-06-11T13:15:12.278Z,466
2023-06-11T13:16:35.691Z,528
2023-06-11T13:19:21.524Z,534
2023-06-11T13:20:44.945Z,371
2023-06-11T13:22:08.339Z,624
2023-06-11T13:23:31.749Z,883
2023-06-11T13:24:55.158Z,871
2023-06-11T13:26:18.565Z,826
2023-06-11T13:27:41.973Z,798
2023-06-11T13:29:05.380Z,703
2023-06-11T13:30:28.785Z,646
2023-06-11T13:31:52.196Z,540
2023-06-11T13:33:15.613Z,382
2023-06-11T13:34:39.012Z,376
2023-06-11T13:36:01.438Z,427
2023-06-11T13:37:24.848Z,556
2023-06-11T13:38:48.269Z,658
2023-06-11T13:40:11.661Z,860
2023-06-11T13:41:35.063Z,939
2023-06-11T13:42:58.492Z,883
2023-06-11T13:44:21.885Z,877
2023-06-11T13:45:45.288Z,568
2023-06-11T13:47:08.708Z,427
2023-06-11T13:48:32.110Z,753
2023-06-11T13:49:55.515Z,883
2023-06-11T13:51:18.935Z,759
2023-06-11T13:52:42.336Z,658
2023-06-11T13:54:04.765Z,489
2023-06-11T13:55:28.175Z,472
2023-06-11T13:56:51.592Z,478
2023-06-11T13:58:14.996Z,658
2023-06-11T13:59:38.403Z,551
2023-06-11T14:01:01.812Z,399
2023-06-11T14:02:25.210Z,568
2023-06-11T14:03:48.620Z,798
2023-06-11T14:05:12.040Z,843
2023-06-11T14:06:35.433Z,810
2023-06-11T14:07:58.857Z,855
2023-06-11T14:09:22.259Z,894
2023-06-11T14:10:45.672Z,866
2023-06-11T14:12:08.092Z,579
2023-06-11T14:13:31.513Z,376
2023-06-11T14:14:54.911Z,410
2023-06-11T14:16:18.312Z,444
2023-06-11T14:17:41.718Z,461
2023-06-11T14:19:05.143Z,523
2023-06-11T14:20:28.543Z,573
2023-06-11T14:21:51.949Z,725
2023-06-11T14:23:15.370Z,815
2023-06-11T14:24:38.773Z,826
2023-06-11T14:26:02.193Z,579
2023-06-11T14:27:25.598Z,410
2023-06-11T14:28:49.006Z,669
2023-06-11T14:30:11.425Z,826
2023-06-11T14:31:34.828Z,911
2023-06-11T14:32:58.245Z,978
2023-06-11T14:34:21.645Z,720
2023-06-11T14:35:45.051Z,630
2023-06-11T14:37:08.469Z,562
2023-06-11T14:38:30.914Z,405
2023-06-11T14:39:54.304Z,365
2023-06-11T14:41:17.711Z,388
2023-06-11T14:42:41.135Z,500
2023-06-11T14:44:04.527Z,630
2023-06-11T14:45:27.946Z,781
2023-06-11T14:46:51.353Z,849
2023-06-11T14:48:14.750Z,810
2023-06-11T14:49:38.174Z,725
2023-06-11T14:51:01.581Z,573
2023-06-11T14:52:24.979Z,410
2023-06-11T14:53:48.402Z,455
2023-06-11T14:55:11.807Z,725
2023-06-11T14:56:34.222Z,821
2023-06-11T14:57:57.638Z,703
2023-06-11T14:59:21.052Z,506
2023-06-11T15:00:44.464Z,427
2023-06-11T15:02:07.874Z,427
2023-06-11T15:03:31.273Z,489
2023-06-11T15:04:54.693Z,388
2023-06-11T15:06:18.104Z,433
2023-06-11T15:07:41.507Z,427
2023-06-11T15:09:04.919Z,140
2023-06-11T15:10:28.330Z,123
2023-06-11T15:11:51.725Z,118
2023-06-11T15:13:15.132Z,118
2023-06-11T15:14:37.564Z,118
2023-06-11T15:16:00.973Z,118
2023-06-11T15:17:24.378Z,118
2023-06-11T15:18:47.799Z,112
2023-06-11T15:20:11.202Z,112
2023-06-11T15:21:34.605Z,112
2023-06-11T15:22:58.026Z,112
2023-06-11T15:24:21.418Z,112
2023-06-11T15:25:44.833Z,112
2023-06-11T15:27:08.253Z,112
2023-06-11T15:28:31.655Z,112
2023-06-11T15:29:55.057Z,106
2023-06-11T15:31:18.462Z,106
2023-06-11T15:32:40.886Z,106
2023-06-11T15:34:04.292Z,106
2023-06-11T15:35:27.705Z,106
2023-06-11T15:36:51.115Z,106
2023-06-11T15:38:14.527Z,106
2023-06-11T15:39:37.920Z,106
2023-06-11T15:41:01.325Z,106
2023-06-11T15:42:24.740Z,106
2023-06-11T15:43:48.142Z,101
2023-06-11T15:45:11.559Z,101
2023-06-11T15:46:34.960Z,101
2023-06-11T15:47:58.369Z,101
2023-06-11T15:49:21.780Z,101
2023-06-11T15:50:44.219Z,101
2023-06-11T15:52:07.612Z,101
2023-06-11T15:53:31.029Z,95
2023-06-11T15:54:54.431Z,95
2023-06-11T15:56:17.848Z,95
2023-06-11T15:57:41.261Z,95
2023-06-11T15:59:04.661Z,95
2023-06-11T16:00:28.069Z,95
2023-06-11T16:01:51.474Z,95
2023-06-11T16:03:14.884Z,90
2023-06-11T16:04:38.304Z,90
2023-06-11T16:06:01.719Z,90
2023-06-11T16:07:25.113Z,84
2023-06-11T16:08:47.546Z,84
2023-06-11T16:10:10.959Z,84
2023-06-11T16:11:34.354Z,84
2023-06-11T16:12:57.772Z,84
2023-06-11T16:14:21.171Z,84
2023-06-11T16:15:44.596Z,84
2023-06-11T16:17:08.002Z,84
2023-06-11T16:18:31.405Z,84
2023-06-11T16:19:54.826Z,84
2023-06-11T16:21:18.228Z,84
2023-06-11T16:22:41.649Z,84
2023-06-11T16:24:05.036Z,84
2023-06-11T16:25:28.460Z,78
2023-06-11T16:26:50.886Z,78
2023-06-11T16:28:14.298Z,78
2023-06-11T16:29:37.699Z,78
2023-06-11T16:31:01.106Z,78
2023-06-11T16:32:24.522Z,78
2023-06-11T16:33:47.935Z,78
2023-06-11T16:35:11.335Z,73
2023-06-11T16:36:34.751Z,73
2023-06-11T16:37:58.157Z,73
2023-06-11T16:39:21.555Z,73
2023-06-11T16:40:44.973Z,73
2023-06-11T16:42:08.373Z,73
2023-06-11T16:43:31.791Z,73
2023-06-11T16:44:54.222Z,73
2023-06-11T16:46:17.624Z,67
2023-06-11T16:47:41.043Z,67
2023-06-11T16:49:04.448Z,67
2023-06-11T16:50:27.860Z,67
2023-06-11T16:51:51.273Z,67
2023-06-11T16:53:14.683Z,67
2023-06-11T16:54:38.087Z,67
2023-06-11T16:56:01.506Z,67
2023-06-11T16:57:24.913Z,61
2023-06-11T16:58:48.308Z,61
2023-06-11T17:00:11.715Z,61
2023-06-11T17:01:35.136Z,61
2023-06-11T17:02:57.556Z,61
2023-06-11T17:04:20.966Z,61
2023-06-11T17:05:44.371Z,61
2023-06-11T17:07:07.783Z,61
2023-06-11T17:08:31.197Z,56
2023-06-11T17:09:54.596Z,56
2023-06-11T17:11:18.016Z,56
2023-06-11T17:12:41.407Z,56
2023-06-11T17:14:04.821Z,56
2023-06-11T17:15:28.236Z,56
2023-06-11T17:16:51.660Z,56
2023-06-11T17:18:15.064Z,56
2023-06-11T17:19:38.460Z,56
2023-06-11T17:21:00.903Z,56
2023-06-11T17:22:24.297Z,50
2023-06-11T17:23:47.708Z,50
2023-06-11T17:25:11.125Z,50
2023-06-11T17:26:34.530Z,50
2023-06-11T17:27:57.942Z,50
2023-06-11T17:29:21.359Z,45
2023-06-11T17:30:44.767Z,45
2023-06-11T17:32:08.167Z,45
2023-06-11T17:33:31.590Z,45
2023-06-11T17:34:54.992Z,45
2023-06-11T17:36:18.395Z,45
2023-06-11T17:37:41.815Z,39
2023-06-11T17:39:04.236Z,39
2023-06-11T17:40:27.634Z,39
2023-06-11T17:41:51.063Z,39
2023-06-11T17:43:14.466Z,39
2023-06-11T17:44:37.865Z,39
2023-06-11T17:46:01.277Z,39
2023-06-11T17:47:24.690Z,33
2023-06-11T17:48:48.107Z,33
2023-06-11T17:50:11.513Z,33
2023-06-11T17:51:34.917Z,33
2023-06-11T17:52:58.329Z,33
2023-06-11T17:54:21.733Z,33
2023-06-11T17:55:45.153Z,33
2023-06-11T17:57:07.575Z,33
2023-06-11T17:58:30.989Z,28
2023-06-11T17:59:54.400Z,28
2023-06-11T18:01:17.797Z,28
2023-06-11T18:02:41.212Z,28
2023-06-11T18:04:04.626Z,28
2023-06-11T18:05:28.035Z,28
2023-06-11T18:06:51.436Z,28
2023-06-11T18:08:14.845Z,28
2023-06-11T18:09:38.266Z,28
2023-06-11T18:11:01.667Z,22
2023-06-11T18:12:25.083Z,22
2023-06-11T18:13:48.476Z,22
2023-06-11T18:15:10.920Z,22
2023-06-11T18:16:34.318Z,22
2023-06-11T18:17:57.733Z,22
2023-06-11T18:19:21.136Z,16
2023-06-11T18:20:44.552Z,16
2023-06-11T18:22:07.959Z,16
2023-06-11T18:23:31.365Z,16
2023-06-11T18:24:54.775Z,16
2023-06-11T18:26:18.183Z,16
2023-06-11T18:27:41.581Z,16
2023-06-11T18:29:05.003Z,16
2023-06-11T18:30:28.400Z,16
2023-06-11T18:31:51.806Z,11
2023-06-11T18:33:14.224Z,11
2023-06-11T18:34:37.651Z,11
2023-06-11T18:36:01.055Z,11
2023-06-11T18:37:24.451Z,11
2023-06-11T18:38:47.872Z,11
2023-06-11T18:40:11.286Z,11
2023-06-11T18:41:34.682Z,11
2023-06-11T18:42:58.095Z,11
2023-06-11T18:44:21.521Z,11
2023-06-11T18:45:44.909Z,11
2023-06-11T18:47:08.323Z,11
2023-06-11T18:48:31.745Z,11
2023-06-11T18:49:55.145Z,11
2023-06-11T18:52:40.972Z,5
2023-06-11T18:54:04.387Z,5
2023-06-11T18:55:27.787Z,5
2023-06-11T18:56:51.209Z,5
2023-06-11T18:58:14.617Z,5
2023-06-11T18:59:38.038Z,5
2023-06-11T19:01:01.430Z,5
2023-06-11T19:02:24.852Z,5
2023-06-11T19:03:48.254Z,5
2023-06-11T19:05:11.655Z,5
2023-06-11T19:06:35.064Z,5
2023-06-11T19:07:58.488Z,0
2023-06-11T19:09:20.901Z,0
2023-06-11T19:10:44.307Z,0
2023-06-11T19:12:07.715Z,0
2023-06-11T19:13:31.139Z,0
2023-06-11T19:14:54.548Z,0
2023-06-11T19:16:17.948Z,0
2023-06-11T19:17:40.376Z,0
2023-06-11T19:19:03.779Z,0
2023-06-11T19:20:27.195Z,0
2023-06-11T19:21:50.613Z,0
2023-06-11T19:23:14.019Z,0
2023-06-11T19:24:37.419Z,0
2023-06-11T19:26:00.832Z,0
2023-06-11T19:27:24.228Z,0
2023-06-11T19:28:47.639Z,0
2023-06-11T19:30:11.056Z,0
2023-06-11T19:31:34.456Z,0
2023-06-11T19:32:57.871Z,0
2023-06-11T19:34:21.272Z,0
2023-06-11T19:35:43.695Z,0
2023-06-11T19:37:07.110Z,0
2023-06-11T19:38:30.512Z,0
2023-06-11T19:39:53.927Z,0
2023-06-11T19:41:17.335Z,0
2023-06-11T19:42:40.743Z,0
2023-06-11T19:44:04.148Z,0
2023-06-11T19:45:27.557Z,0
2023-06-11T19:46:50.979Z,0
2023-06-11T19:48:14.374Z,0
2023-06-11T19:49:37.788Z,0
2023-06-11T19:51:01.187Z,0
2023-06-11T19:52:24.595Z,0
2023-06-11T19:53:47.036Z,0
2023-06-11T19:55:10.489Z,0
2023-06-11T19:56:33.875Z,0
2023-06-11T19:57:57.299Z,0
2023-06-11T19:59:20.710Z,0
2023-06-11T20:00:44.161Z,0
2023-06-11T20:02:07.570Z,0
2023-06-11T20:03:30.964Z,0
2023-06-11T20:04:54.365Z,0
2023-06-11T20:06:17.829Z,0
2023-06-11T20:07:41.280Z,0
2023-06-11T20:09:04.718Z,0
2023-06-11T20:10:28.168Z,0
2023-06-11T20:11:50.647Z,0
2023-06-11T20:13:14.088Z,0
2023-06-11T20:14:37.550Z,0
2023-06-11T20:16:00.982Z,0
2023-06-11T20:17:24.442Z,0
2023-06-11T20:18:47.888Z,0
2023-06-11T20:20:11.344Z,0
2023-06-11T20:21:34.782Z,0
2023-06-11T20:22:58.249Z,0
2023-06-11T20:24:21.691Z,0
2023-06-11T20:25:45.133Z,0
2023-06-11T20:27:08.588Z,0
2023-06-11T20:28:32.043Z,0
2023-06-11T20:29:54.497Z,0
2023-06-11T20:31:17.959Z,0
2023-06-11T20:32:41.410Z,0
2023-06-11T20:34:04.858Z,0
2023-06-11T20:35:28.316Z,0
2023-06-11T20:36:51.757Z,0
2023-06-11T20:38:15.207Z,0
2023-06-11T20:39:38.643Z,0
2023-06-11T20:41:02.101Z,0
2023-06-11T20:42:25.559Z,0
2023-06-11T20:57:48.847Z,0
2023-06-11T21:13:12.148Z,0
2023-06-11T21:28:35.445Z,0
2023-06-11T21:43:57.769Z,0
2023-06-11T21:59:21.059Z,0
2023-06-11T22:14:44.342Z,0
2023-06-11T22:30:07.667Z,0
2023-06-11T22:45:30.963Z,0
2023-06-11T23:00:54.245Z,0
2023-06-11T23:16:17.555Z,0
2023-06-11T23:31:40.856Z,0
2023-06-11T23:33:04.298Z,0
2023-06-11T23:34:27.757Z,0
2023-06-11T23:35:51.190Z,0
2023-06-11T23:37:14.660Z,0
2023-06-11T23:38:38.105Z,0
2023-06-11T23:40:00.566Z,0
2023-06-11T23:41:24.011Z,0
2023-06-11T23:42:47.456Z,0
2023-06-11T23:44:10.921Z,0
2023-06-11T23:45:34.357Z,0
2023-06-11T23:46:57.807Z,0
2023-06-11T23:48:21.253Z,0
2023-06-11T23:49:44.706Z,0
2023-06-11T23:51:08.158Z,0
2023-06-11T23:52:31.606Z,0
2023-06-11T23:53:55.066Z,0
2023-06-11T23:55:18.503Z,0
2023-06-11T23:56:41.960Z,0
2023-06-11T23:58:04.413Z,0
2023-06-11T23:59:27.858Z,0
